sensor_id;sensor_type;location;lat;lon;timestamp;pressure;altitude;pressure_sealevel;temperature;humidity
82031;BME280;71592;52.178;4.512;2023-07-20T00:00:25;101545.03;;;15.26;80.57
82031;BME280;71592;52.178;4.512;2023-07-20T00:02:51;101543.22;;;15.14;81.31
82031;BME280;71592;52.178;4.512;2023-07-20T00:05:17;101546.56;;;15.16;81.20
82031;BME280;71592;52.178;4.512;2023-07-20T00:07:47;101534.47;;;15.23;81.03
82031;BME280;71592;52.178;4.512;2023-07-20T00:10:13;101540.06;;;15.28;80.25
82031;BME280;71592;52.178;4.512;2023-07-20T00:12:38;101540.25;;;15.21;80.56
82031;BME280;71592;52.178;4.512;2023-07-20T00:15:04;101534.59;;;15.11;80.81
82031;BME280;71592;52.178;4.512;2023-07-20T00:17:30;101542.47;;;14.97;81.47
82031;BME280;71592;52.178;4.512;2023-07-20T00:19:55;101544.31;;;14.92;82.33
82031;BME280;71592;52.178;4.512;2023-07-20T00:22:20;101544.75;;;14.83;82.66
82031;BME280;71592;52.178;4.512;2023-07-20T00:24:46;101539.91;;;14.74;82.24
82031;BME280;71592;52.178;4.512;2023-07-20T00:27:11;101546.03;;;14.76;82.72
82031;BME280;71592;52.178;4.512;2023-07-20T00:29:36;101542.22;;;14.60;83.08
82031;BME280;71592;52.178;4.512;2023-07-20T00:32:02;101546.56;;;14.56;83.72
82031;BME280;71592;52.178;4.512;2023-07-20T00:34:30;101548.75;;;14.54;83.76
82031;BME280;71592;52.178;4.512;2023-07-20T00:36:56;101536.03;;;14.53;83.53
82031;BME280;71592;52.178;4.512;2023-07-20T00:39:21;101543.66;;;14.46;83.48
82031;BME280;71592;52.178;4.512;2023-07-20T00:41:46;101535.63;;;14.44;84.44
82031;BME280;71592;52.178;4.512;2023-07-20T00:44:12;101539.75;;;14.42;83.85
82031;BME280;71592;52.178;4.512;2023-07-20T00:46:37;101549.59;;;14.38;83.45
82031;BME280;71592;52.178;4.512;2023-07-20T00:49:03;101527.34;;;14.28;84.79
82031;BME280;71592;52.178;4.512;2023-07-20T00:51:29;101533.53;;;14.35;83.21
82031;BME280;71592;52.178;4.512;2023-07-20T00:53:55;101526.25;;;14.29;83.48
82031;BME280;71592;52.178;4.512;2023-07-20T00:56:21;101530.53;;;14.19;83.51
82031;BME280;71592;52.178;4.512;2023-07-20T00:58:47;101533.03;;;14.21;84.60
82031;BME280;71592;52.178;4.512;2023-07-20T01:01:12;101529.78;;;14.24;84.13
82031;BME280;71592;52.178;4.512;2023-07-20T01:03:39;101536.22;;;14.30;83.56
82031;BME280;71592;52.178;4.512;2023-07-20T01:13:46;101539.88;;;14.18;83.25
82031;BME280;71592;52.178;4.512;2023-07-20T01:16:12;101533.72;;;14.11;84.10
82031;BME280;71592;52.178;4.512;2023-07-20T01:18:37;101543.84;;;14.06;83.97
82031;BME280;71592;52.178;4.512;2023-07-20T01:21:07;101540.25;;;14.05;83.25
82031;BME280;71592;52.178;4.512;2023-07-20T01:29:17;101550.16;;;13.90;83.70
82031;BME280;71592;52.178;4.512;2023-07-20T01:31:51;101557.00;;;13.87;84.49
82031;BME280;71592;52.178;4.512;2023-07-20T01:34:18;101560.63;;;13.88;84.05
82031;BME280;71592;52.178;4.512;2023-07-20T01:36:46;101556.53;;;13.90;84.56
82031;BME280;71592;52.178;4.512;2023-07-20T01:39:13;101560.88;;;14.03;84.61
82031;BME280;71592;52.178;4.512;2023-07-20T01:41:39;101560.16;;;14.07;84.68
82031;BME280;71592;52.178;4.512;2023-07-20T01:44:04;101554.97;;;14.11;84.33
82031;BME280;71592;52.178;4.512;2023-07-20T01:46:30;101551.09;;;14.29;84.17
82031;BME280;71592;52.178;4.512;2023-07-20T01:48:55;101550.09;;;14.35;84.07
82031;BME280;71592;52.178;4.512;2023-07-20T01:51:21;101556.22;;;14.37;84.11
82031;BME280;71592;52.178;4.512;2023-07-20T01:53:46;101543.34;;;14.42;83.83
82031;BME280;71592;52.178;4.512;2023-07-20T01:56:11;101550.25;;;14.45;83.11
82031;BME280;71592;52.178;4.512;2023-07-20T01:58:38;101550.81;;;14.42;83.89
82031;BME280;71592;52.178;4.512;2023-07-20T02:01:03;101550.56;;;14.43;83.25
82031;BME280;71592;52.178;4.512;2023-07-20T02:03:28;101550.94;;;14.35;83.29
82031;BME280;71592;52.178;4.512;2023-07-20T02:05:54;101556.13;;;14.32;84.14
82031;BME280;71592;52.178;4.512;2023-07-20T02:08:19;101551.09;;;14.29;83.94
82031;BME280;71592;52.178;4.512;2023-07-20T02:10:46;101556.97;;;14.32;83.84
82031;BME280;71592;52.178;4.512;2023-07-20T02:13:15;101561.13;;;14.35;83.54
82031;BME280;71592;52.178;4.512;2023-07-20T02:15:43;101552.69;;;14.25;83.34
82031;BME280;71592;52.178;4.512;2023-07-20T02:18:08;101556.44;;;14.18;84.06
82031;BME280;71592;52.178;4.512;2023-07-20T02:20:34;101547.19;;;14.08;84.17
82031;BME280;71592;52.178;4.512;2023-07-20T02:23:00;101550.28;;;14.11;83.63
82031;BME280;71592;52.178;4.512;2023-07-20T02:25:25;101551.03;;;14.07;83.98
82031;BME280;71592;52.178;4.512;2023-07-20T02:27:52;101551.28;;;14.05;84.80
82031;BME280;71592;52.178;4.512;2023-07-20T02:30:17;101550.09;;;14.18;84.17
82031;BME280;71592;52.178;4.512;2023-07-20T02:32:43;101544.78;;;14.11;84.00
82031;BME280;71592;52.178;4.512;2023-07-20T02:35:11;101549.25;;;14.01;84.48
82031;BME280;71592;52.178;4.512;2023-07-20T02:37:36;101549.75;;;13.98;84.14
82031;BME280;71592;52.178;4.512;2023-07-20T02:40:02;101552.88;;;13.84;84.31
82031;BME280;71592;52.178;4.512;2023-07-20T02:42:29;101555.34;;;13.69;85.30
82031;BME280;71592;52.178;4.512;2023-07-20T02:44:55;101555.34;;;13.69;84.94
82031;BME280;71592;52.178;4.512;2023-07-20T02:47:20;101556.16;;;13.70;84.82
82031;BME280;71592;52.178;4.512;2023-07-20T02:49:46;101554.59;;;13.74;84.74
82031;BME280;71592;52.178;4.512;2023-07-20T02:52:11;101548.16;;;13.68;83.87
82031;BME280;71592;52.178;4.512;2023-07-20T02:54:36;101547.41;;;13.73;84.34
82031;BME280;71592;52.178;4.512;2023-07-20T02:57:02;101555.38;;;13.58;84.79
82031;BME280;71592;52.178;4.512;2023-07-20T02:59:27;101548.13;;;13.51;85.06
82031;BME280;71592;52.178;4.512;2023-07-20T03:01:53;101557.72;;;13.49;84.20
82031;BME280;71592;52.178;4.512;2023-07-20T03:04:19;101550.56;;;13.36;84.48
82031;BME280;71592;52.178;4.512;2023-07-20T03:06:45;101564.94;;;13.38;85.03
82031;BME280;71592;52.178;4.512;2023-07-20T03:09:10;101564.72;;;13.28;84.47
82031;BME280;71592;52.178;4.512;2023-07-20T03:11:36;101563.41;;;13.31;83.97
82031;BME280;71592;52.178;4.512;2023-07-20T03:14:01;101567.16;;;13.25;84.31
82031;BME280;71592;52.178;4.512;2023-07-20T03:16:26;101567.16;;;13.25;85.07
82031;BME280;71592;52.178;4.512;2023-07-20T03:18:52;101566.69;;;13.16;85.77
82031;BME280;71592;52.178;4.512;2023-07-20T03:21:18;101565.72;;;13.10;84.42
82031;BME280;71592;52.178;4.512;2023-07-20T03:23:43;101569.19;;;13.06;84.91
82031;BME280;71592;52.178;4.512;2023-07-20T03:26:08;101566.84;;;12.98;85.48
82031;BME280;71592;52.178;4.512;2023-07-20T03:28:38;101571.84;;;13.01;85.74
82031;BME280;71592;52.178;4.512;2023-07-20T03:31:04;101574.94;;;13.04;85.67
82031;BME280;71592;52.178;4.512;2023-07-20T03:33:31;101574.47;;;13.07;86.09
82031;BME280;71592;52.178;4.512;2023-07-20T03:35:57;101574.72;;;13.17;85.93
82031;BME280;71592;52.178;4.512;2023-07-20T03:38:23;101578.13;;;13.36;85.95
82031;BME280;71592;52.178;4.512;2023-07-20T03:40:56;101578.81;;;13.43;84.96
82031;BME280;71592;52.178;4.512;2023-07-20T03:43:22;101583.94;;;13.51;85.73
82031;BME280;71592;52.178;4.512;2023-07-20T03:45:48;101587.59;;;13.69;84.55
82031;BME280;71592;52.178;4.512;2023-07-20T03:48:19;101590.41;;;13.85;84.38
82031;BME280;71592;52.178;4.512;2023-07-20T03:50:45;101589.97;;;13.94;83.94
82031;BME280;71592;52.178;4.512;2023-07-20T03:53:11;101589.22;;;13.98;83.98
82031;BME280;71592;52.178;4.512;2023-07-20T03:55:37;101594.94;;;14.08;83.77
82031;BME280;71592;52.178;4.512;2023-07-20T03:58:02;101598.88;;;14.12;84.89
82031;BME280;71592;52.178;4.512;2023-07-20T04:00:28;101598.94;;;14.17;84.50
82031;BME280;71592;52.178;4.512;2023-07-20T04:02:54;101597.94;;;14.24;84.15
82031;BME280;71592;52.178;4.512;2023-07-20T04:05:19;101593.34;;;14.29;84.40
82031;BME280;71592;52.178;4.512;2023-07-20T04:07:45;101594.75;;;14.32;84.71
82031;BME280;71592;52.178;4.512;2023-07-20T04:10:10;101595.00;;;14.30;84.16
82031;BME280;71592;52.178;4.512;2023-07-20T04:12:36;101602.03;;;14.38;83.46
82031;BME280;71592;52.178;4.512;2023-07-20T04:15:02;101598.56;;;14.42;83.30
82031;BME280;71592;52.178;4.512;2023-07-20T04:17:30;101602.81;;;14.50;83.16
82031;BME280;71592;52.178;4.512;2023-07-20T04:19:55;101594.34;;;14.57;82.85
82031;BME280;71592;52.178;4.512;2023-07-20T04:22:21;101594.78;;;14.65;82.78
82031;BME280;71592;52.178;4.512;2023-07-20T04:24:46;101604.81;;;14.71;82.25
82031;BME280;71592;52.178;4.512;2023-07-20T04:27:12;101596.66;;;14.81;81.63
82031;BME280;71592;52.178;4.512;2023-07-20T04:29:37;101593.34;;;15.01;81.01
82031;BME280;71592;52.178;4.512;2023-07-20T04:32:03;101599.31;;;15.15;78.83
82031;BME280;71592;52.178;4.512;2023-07-20T04:34:28;101602.53;;;15.50;78.40
82031;BME280;71592;52.178;4.512;2023-07-20T04:36:54;101602.28;;;15.74;76.30
82031;BME280;71592;52.178;4.512;2023-07-20T04:39:19;101609.56;;;16.44;72.60
82031;BME280;71592;52.178;4.512;2023-07-20T04:41:44;101603.84;;;16.93;71.28
82031;BME280;71592;52.178;4.512;2023-07-20T04:44:10;101613.72;;;16.78;70.41
82031;BME280;71592;52.178;4.512;2023-07-20T04:46:36;101614.53;;;16.79;69.71
82031;BME280;71592;52.178;4.512;2023-07-20T04:49:01;101623.22;;;16.93;69.90
82031;BME280;71592;52.178;4.512;2023-07-20T04:51:27;101609.56;;;17.33;66.47
82031;BME280;71592;52.178;4.512;2023-07-20T04:53:52;101623.66;;;17.89;63.66
82031;BME280;71592;52.178;4.512;2023-07-20T04:56:18;101621.13;;;19.79;58.21
82031;BME280;71592;52.178;4.512;2023-07-20T04:58:43;101623.13;;;19.68;56.88
82031;BME280;71592;52.178;4.512;2023-07-20T05:01:08;101624.81;;;19.64;55.90
82031;BME280;71592;52.178;4.512;2023-07-20T05:03:34;101623.63;;;19.80;54.58
82031;BME280;71592;52.178;4.512;2023-07-20T05:05:59;101623.44;;;20.50;53.31
82031;BME280;71592;52.178;4.512;2023-07-20T05:08:24;101626.13;;;20.89;50.69
82031;BME280;71592;52.178;4.512;2023-07-20T05:10:50;101623.94;;;21.10;48.44
82031;BME280;71592;52.178;4.512;2023-07-20T05:13:16;101623.72;;;20.09;51.19
82031;BME280;71592;52.178;4.512;2023-07-20T05:15:41;101617.91;;;21.69;48.50
82031;BME280;71592;52.178;4.512;2023-07-20T05:18:07;101628.31;;;21.21;48.17
82031;BME280;71592;52.178;4.512;2023-07-20T05:20:34;101617.41;;;20.96;48.76
82031;BME280;71592;52.178;4.512;2023-07-20T05:23:00;101624.59;;;21.49;48.27
82031;BME280;71592;52.178;4.512;2023-07-20T05:25:26;101630.41;;;22.98;43.90
82031;BME280;71592;52.178;4.512;2023-07-20T05:27:51;101632.09;;;23.54;42.00
82031;BME280;71592;52.178;4.512;2023-07-20T05:30:17;101624.88;;;22.93;43.49
82031;BME280;71592;52.178;4.512;2023-07-20T05:32:43;101620.75;;;23.45;42.15
82031;BME280;71592;52.178;4.512;2023-07-20T05:35:10;101624.88;;;22.61;44.19
82031;BME280;71592;52.178;4.512;2023-07-20T05:37:37;101629.28;;;22.15;45.17
82031;BME280;71592;52.178;4.512;2023-07-20T05:40:04;101624.09;;;21.66;46.78
82031;BME280;71592;52.178;4.512;2023-07-20T05:42:29;101633.88;;;21.87;45.67
82031;BME280;71592;52.178;4.512;2023-07-20T05:44:55;101628.69;;;22.83;43.85
82031;BME280;71592;52.178;4.512;2023-07-20T05:47:20;101636.34;;;24.82;39.53
82031;BME280;71592;52.178;4.512;2023-07-20T05:49:46;101633.25;;;24.92;38.99
82031;BME280;71592;52.178;4.512;2023-07-20T05:52:11;101631.94;;;23.86;42.04
82031;BME280;71592;52.178;4.512;2023-07-20T05:54:36;101631.75;;;22.36;43.47
82031;BME280;71592;52.178;4.512;2023-07-20T05:57:02;101631.97;;;25.29;39.21
82031;BME280;71592;52.178;4.512;2023-07-20T05:59:27;101638.50;;;24.63;40.14
82031;BME280;71592;52.178;4.512;2023-07-20T06:01:56;101634.69;;;25.60;39.10
82031;BME280;71592;52.178;4.512;2023-07-20T06:04:22;101631.88;;;24.00;40.68
82031;BME280;71592;52.178;4.512;2023-07-20T06:06:48;101635.13;;;26.10;38.49
82031;BME280;71592;52.178;4.512;2023-07-20T06:09:13;101631.66;;;26.31;37.57
82031;BME280;71592;52.178;4.512;2023-07-20T06:11:39;101635.47;;;26.43;36.08
82031;BME280;71592;52.178;4.512;2023-07-20T06:14:04;101634.63;;;26.08;37.70
82031;BME280;71592;52.178;4.512;2023-07-20T06:16:30;101628.19;;;26.42;36.06
82031;BME280;71592;52.178;4.512;2023-07-20T06:18:56;101636.28;;;25.44;37.20
82031;BME280;71592;52.178;4.512;2023-07-20T06:21:22;101636.94;;;27.60;36.80
82031;BME280;71592;52.178;4.512;2023-07-20T06:23:47;101634.44;;;26.05;35.57
82031;BME280;71592;52.178;4.512;2023-07-20T06:26:13;101641.25;;;27.87;34.11
82031;BME280;71592;52.178;4.512;2023-07-20T06:28:38;101635.56;;;28.16;31.64
82031;BME280;71592;52.178;4.512;2023-07-20T06:31:04;101635.28;;;28.51;32.71
82031;BME280;71592;52.178;4.512;2023-07-20T06:33:29;101640.16;;;29.08;32.63
82031;BME280;71592;52.178;4.512;2023-07-20T06:35:55;101636.22;;;27.34;33.43
82031;BME280;71592;52.178;4.512;2023-07-20T06:38:22;101639.03;;;24.42;39.06
82031;BME280;71592;52.178;4.512;2023-07-20T06:40:51;101642.72;;;25.93;36.25
82031;BME280;71592;52.178;4.512;2023-07-20T06:43:17;101638.88;;;25.23;37.36
82031;BME280;71592;52.178;4.512;2023-07-20T06:45:43;101637.06;;;24.43;39.09
82031;BME280;71592;52.178;4.512;2023-07-20T06:48:09;101640.44;;;28.07;34.37
82031;BME280;71592;52.178;4.512;2023-07-20T06:50:34;101643.22;;;24.98;38.34
82031;BME280;71592;52.178;4.512;2023-07-20T06:53:00;101642.78;;;24.38;39.43
82031;BME280;71592;52.178;4.512;2023-07-20T06:55:28;101642.28;;;24.80;38.85
82031;BME280;71592;52.178;4.512;2023-07-20T06:57:53;101651.97;;;26.71;36.64
82031;BME280;71592;52.178;4.512;2023-07-20T07:00:19;101641.59;;;23.94;40.34
82031;BME280;71592;52.178;4.512;2023-07-20T07:02:44;101644.56;;;26.32;36.93
82031;BME280;71592;52.178;4.512;2023-07-20T07:05:10;101641.13;;;25.12;38.09
82031;BME280;71592;52.178;4.512;2023-07-20T07:07:35;101653.16;;;27.93;34.74
82031;BME280;71592;52.178;4.512;2023-07-20T07:10:01;101651.97;;;29.34;30.19
82031;BME280;71592;52.178;4.512;2023-07-20T07:12:30;101664.56;;;30.38;29.82
82031;BME280;71592;52.178;4.512;2023-07-20T07:14:56;101659.97;;;29.32;29.96
82031;BME280;71592;52.178;4.512;2023-07-20T07:17:22;101656.00;;;27.16;34.87
82031;BME280;71592;52.178;4.512;2023-07-20T07:19:47;101660.22;;;29.64;31.20
82031;BME280;71592;52.178;4.512;2023-07-20T07:22:13;101655.94;;;29.09;29.80
82031;BME280;71592;52.178;4.512;2023-07-20T07:24:39;101656.53;;;28.07;31.74
82031;BME280;71592;52.178;4.512;2023-07-20T07:27:08;101660.94;;;30.65;28.50
82031;BME280;71592;52.178;4.512;2023-07-20T07:29:33;101664.47;;;32.00;26.94
82031;BME280;71592;52.178;4.512;2023-07-20T07:31:59;101659.31;;;31.55;27.86
82031;BME280;71592;52.178;4.512;2023-07-20T07:34:24;101662.44;;;32.74;25.97
82031;BME280;71592;52.178;4.512;2023-07-20T07:36:50;101656.97;;;32.85;24.97
82031;BME280;71592;52.178;4.512;2023-07-20T07:39:16;101664.28;;;33.28;23.89
82031;BME280;71592;52.178;4.512;2023-07-20T07:41:41;101658.44;;;29.83;30.40
82031;BME280;71592;52.178;4.512;2023-07-20T07:44:06;101663.59;;;31.65;27.04
82031;BME280;71592;52.178;4.512;2023-07-20T07:46:33;101650.75;;;29.11;28.84
82031;BME280;71592;52.178;4.512;2023-07-20T07:48:59;101648.09;;;27.10;32.80
82031;BME280;71592;52.178;4.512;2023-07-20T07:51:24;101651.88;;;29.67;29.14
82031;BME280;71592;52.178;4.512;2023-07-20T07:53:50;101665.34;;;31.53;26.47
82031;BME280;71592;52.178;4.512;2023-07-20T07:56:15;101655.16;;;29.69;28.26
82031;BME280;71592;52.178;4.512;2023-07-20T07:58:42;101652.25;;;27.12;31.15
82031;BME280;71592;52.178;4.512;2023-07-20T08:01:08;101650.63;;;24.72;36.62
82031;BME280;71592;52.178;4.512;2023-07-20T08:03:34;101647.03;;;23.99;37.62
82031;BME280;71592;52.178;4.512;2023-07-20T08:06:02;101649.97;;;24.30;37.14
82031;BME280;71592;52.178;4.512;2023-07-20T08:08:31;101654.59;;;23.63;38.91
82031;BME280;71592;52.178;4.512;2023-07-20T08:10:56;101648.22;;;23.16;40.36
82031;BME280;71592;52.178;4.512;2023-07-20T08:13:22;101656.63;;;22.70;42.72
82031;BME280;71592;52.178;4.512;2023-07-20T08:15:50;101652.56;;;22.81;41.45
82031;BME280;71592;52.178;4.512;2023-07-20T08:18:19;101661.56;;;25.83;36.14
82031;BME280;71592;52.178;4.512;2023-07-20T08:20:45;101663.47;;;29.17;30.42
82031;BME280;71592;52.178;4.512;2023-07-20T08:23:12;101673.41;;;29.96;28.14
82031;BME280;71592;52.178;4.512;2023-07-20T08:25:38;101662.78;;;30.45;27.02
82031;BME280;71592;52.178;4.512;2023-07-20T08:28:07;101658.50;;;31.39;26.14
82031;BME280;71592;52.178;4.512;2023-07-20T08:30:40;101656.03;;;28.67;29.87
82031;BME280;71592;52.178;4.512;2023-07-20T08:33:06;101649.59;;;29.97;27.85
82031;BME280;71592;52.178;4.512;2023-07-20T08:35:35;101663.34;;;31.22;26.29
82031;BME280;71592;52.178;4.512;2023-07-20T08:38:00;101666.03;;;31.98;24.47
82031;BME280;71592;52.178;4.512;2023-07-20T08:40:26;101661.38;;;29.87;27.70
82031;BME280;71592;52.178;4.512;2023-07-20T08:42:52;101662.72;;;31.45;25.81
82031;BME280;71592;52.178;4.512;2023-07-20T08:45:20;101674.28;;;32.99;23.91
82031;BME280;71592;52.178;4.512;2023-07-20T08:47:48;101670.81;;;33.09;22.95
82031;BME280;71592;52.178;4.512;2023-07-20T08:50:15;101671.88;;;31.70;23.72
82031;BME280;71592;52.178;4.512;2023-07-20T08:52:41;101670.88;;;32.51;23.77
82031;BME280;71592;52.178;4.512;2023-07-20T08:55:07;101668.72;;;33.75;22.62
82031;BME280;71592;52.178;4.512;2023-07-20T08:57:33;101670.41;;;33.30;24.09
82031;BME280;71592;52.178;4.512;2023-07-20T09:00:03;101666.69;;;31.91;23.48
82031;BME280;71592;52.178;4.512;2023-07-20T09:02:35;101659.84;;;29.89;26.01
82031;BME280;71592;52.178;4.512;2023-07-20T09:05:04;101664.16;;;32.60;22.92
82031;BME280;71592;52.178;4.512;2023-07-20T09:07:30;101657.56;;;32.36;23.21
82031;BME280;71592;52.178;4.512;2023-07-20T09:09:57;101668.00;;;33.32;22.33
82031;BME280;71592;52.178;4.512;2023-07-20T09:12:23;101663.19;;;33.36;22.34
82031;BME280;71592;52.178;4.512;2023-07-20T09:14:49;101662.06;;;32.37;23.27
82031;BME280;71592;52.178;4.512;2023-07-20T09:17:14;101661.50;;;30.71;24.08
82031;BME280;71592;52.178;4.512;2023-07-20T09:19:49;101659.53;;;32.32;22.84
82031;BME280;71592;52.178;4.512;2023-07-20T09:22:14;101662.09;;;30.92;24.13
82031;BME280;71592;52.178;4.512;2023-07-20T09:24:40;101651.66;;;30.25;27.00
82031;BME280;71592;52.178;4.512;2023-07-20T09:27:07;101654.06;;;29.98;27.26
82031;BME280;71592;52.178;4.512;2023-07-20T09:29:39;101655.03;;;29.78;26.55
82031;BME280;71592;52.178;4.512;2023-07-20T09:32:19;101652.16;;;30.14;26.30
82031;BME280;71592;52.178;4.512;2023-07-20T09:34:50;101660.22;;;29.64;27.14
82031;BME280;71592;52.178;4.512;2023-07-20T09:37:23;101654.81;;;29.71;26.95
82031;BME280;71592;52.178;4.512;2023-07-20T09:39:52;101659.00;;;30.41;26.16
82031;BME280;71592;52.178;4.512;2023-07-20T09:42:22;101645.09;;;29.23;28.11
82031;BME280;71592;52.178;4.512;2023-07-20T09:44:47;101652.44;;;29.36;28.15
82031;BME280;71592;52.178;4.512;2023-07-20T09:47:21;101651.34;;;29.89;27.68
82031;BME280;71592;52.178;4.512;2023-07-20T09:49:47;101649.66;;;28.91;27.60
82031;BME280;71592;52.178;4.512;2023-07-20T09:52:13;101651.56;;;30.09;27.26
82031;BME280;71592;52.178;4.512;2023-07-20T09:54:40;101643.47;;;29.95;26.38
82031;BME280;71592;52.178;4.512;2023-07-20T09:57:08;101645.56;;;30.10;26.20
82031;BME280;71592;52.178;4.512;2023-07-20T09:59:34;101646.53;;;30.02;27.58
82031;BME280;71592;52.178;4.512;2023-07-20T10:02:01;101638.72;;;28.69;28.03
82031;BME280;71592;52.178;4.512;2023-07-20T10:04:28;101642.59;;;28.85;28.88
82031;BME280;71592;52.178;4.512;2023-07-20T10:06:55;101640.63;;;29.22;28.62
82031;BME280;71592;52.178;4.512;2023-07-20T10:09:21;101642.41;;;29.39;28.77
82031;BME280;71592;52.178;4.512;2023-07-20T10:11:50;101638.94;;;29.42;28.17
82031;BME280;71592;52.178;4.512;2023-07-20T10:14:20;101652.09;;;29.62;27.47
82031;BME280;71592;52.178;4.512;2023-07-20T10:16:58;101659.13;;;29.32;27.57
82031;BME280;71592;52.178;4.512;2023-07-20T10:19:42;101646.44;;;29.38;27.46
82031;BME280;71592;52.178;4.512;2023-07-20T10:22:24;101641.03;;;28.21;29.34
82031;BME280;71592;52.178;4.512;2023-07-20T10:24:51;101652.47;;;28.16;30.97
82031;BME280;71592;52.178;4.512;2023-07-20T10:27:20;101645.88;;;27.92;30.81
82031;BME280;71592;52.178;4.512;2023-07-20T10:29:48;101649.84;;;29.31;28.96
82031;BME280;71592;52.178;4.512;2023-07-20T10:32:14;101647.50;;;29.45;27.63
82031;BME280;71592;52.178;4.512;2023-07-20T10:34:40;101640.50;;;28.73;28.17
82031;BME280;71592;52.178;4.512;2023-07-20T10:37:05;101638.44;;;27.57;29.47
82031;BME280;71592;52.178;4.512;2023-07-20T10:39:31;101641.78;;;28.64;29.31
82031;BME280;71592;52.178;4.512;2023-07-20T10:42:01;101641.44;;;27.82;30.38
82031;BME280;71592;52.178;4.512;2023-07-20T10:44:30;101645.88;;;27.92;29.91
82031;BME280;71592;52.178;4.512;2023-07-20T10:47:03;101645.09;;;28.03;29.77
82031;BME280;71592;52.178;4.512;2023-07-20T10:49:34;101645.22;;;27.56;29.72
82031;BME280;71592;52.178;4.512;2023-07-20T10:52:04;101641.59;;;27.18;32.34
82031;BME280;71592;52.178;4.512;2023-07-20T10:56:56;101635.38;;;27.42;31.63
82031;BME280;71592;52.178;4.512;2023-07-20T11:01:57;101633.16;;;27.47;30.94
82031;BME280;71592;52.178;4.512;2023-07-20T11:04:39;101634.59;;;28.87;30.78
82031;BME280;71592;52.178;4.512;2023-07-20T11:07:05;101628.47;;;27.89;29.98
82031;BME280;71592;52.178;4.512;2023-07-20T11:09:38;101629.28;;;27.69;31.29
82031;BME280;71592;52.178;4.512;2023-07-20T11:12:14;101628.13;;;27.91;29.92
82031;BME280;71592;52.178;4.512;2023-07-20T11:14:44;101615.75;;;27.16;31.62
82031;BME280;71592;52.178;4.512;2023-07-20T11:17:18;101619.66;;;28.12;30.43
82031;BME280;71592;52.178;4.512;2023-07-20T11:19:55;101619.16;;;27.68;29.70
82031;BME280;71592;52.178;4.512;2023-07-20T11:22:21;101621.97;;;27.68;31.69
82031;BME280;71592;52.178;4.512;2023-07-20T11:24:50;101618.97;;;27.94;30.58
82031;BME280;71592;52.178;4.512;2023-07-20T11:27:15;101619.72;;;28.03;30.77
82031;BME280;71592;52.178;4.512;2023-07-20T11:29:41;101610.97;;;27.46;31.25
82031;BME280;71592;52.178;4.512;2023-07-20T11:32:07;101612.03;;;27.71;30.69
82031;BME280;71592;52.178;4.512;2023-07-20T11:34:33;101614.16;;;27.06;30.64
82031;BME280;71592;52.178;4.512;2023-07-20T11:36:59;101600.59;;;27.38;31.58
82031;BME280;71592;52.178;4.512;2023-07-20T11:39:25;101609.38;;;26.89;31.14
82031;BME280;71592;52.178;4.512;2023-07-20T11:41:52;101601.59;;;26.95;31.23
82031;BME280;71592;52.178;4.512;2023-07-20T11:44:20;101589.53;;;27.62;30.39
82031;BME280;71592;52.178;4.512;2023-07-20T11:46:53;101596.81;;;28.05;31.04
82031;BME280;71592;52.178;4.512;2023-07-20T11:49:25;101601.75;;;27.66;30.88
82031;BME280;71592;52.178;4.512;2023-07-20T11:51:51;101606.13;;;27.17;30.15
82031;BME280;71592;52.178;4.512;2023-07-20T11:54:16;101600.25;;;26.92;31.11
82031;BME280;71592;52.178;4.512;2023-07-20T11:56:42;101594.00;;;27.54;31.03
82031;BME280;71592;52.178;4.512;2023-07-20T11:59:08;101595.03;;;27.79;31.11
82031;BME280;71592;52.178;4.512;2023-07-20T12:01:33;101586.22;;;27.51;30.60
82031;BME280;71592;52.178;4.512;2023-07-20T12:04:00;101593.84;;;26.83;31.79
82031;BME280;71592;52.178;4.512;2023-07-20T12:06:27;101598.81;;;27.24;31.61
82031;BME280;71592;52.178;4.512;2023-07-20T12:08:59;101589.00;;;27.31;33.06
82031;BME280;71592;52.178;4.512;2023-07-20T12:11:36;101594.25;;;27.11;31.39
82031;BME280;71592;52.178;4.512;2023-07-20T12:14:08;101590.78;;;26.16;32.37
82031;BME280;71592;52.178;4.512;2023-07-20T12:16:35;101593.97;;;26.87;33.05
82031;BME280;71592;52.178;4.512;2023-07-20T12:19:06;101588.81;;;25.90;33.17
82031;BME280;71592;52.178;4.512;2023-07-20T12:21:34;101593.13;;;26.31;33.09
82031;BME280;71592;52.178;4.512;2023-07-20T12:23:59;101594.94;;;26.18;33.56
82031;BME280;71592;52.178;4.512;2023-07-20T12:26:26;101594.25;;;26.47;32.90
82031;BME280;71592;52.178;4.512;2023-07-20T12:28:52;101585.16;;;25.81;33.59
82031;BME280;71592;52.178;4.512;2023-07-20T12:31:17;101584.03;;;25.26;33.95
82031;BME280;71592;52.178;4.512;2023-07-20T12:33:43;101588.72;;;25.47;34.38
82031;BME280;71592;52.178;4.512;2023-07-20T12:36:09;101581.19;;;25.74;33.43
82031;BME280;71592;52.178;4.512;2023-07-20T12:38:35;101583.69;;;25.67;34.39
82031;BME280;71592;52.178;4.512;2023-07-20T12:41:01;101586.31;;;26.41;33.13
82031;BME280;71592;52.178;4.512;2023-07-20T12:43:28;101577.88;;;25.80;33.45
82031;BME280;71592;52.178;4.512;2023-07-20T12:45:54;101576.25;;;25.88;32.19
82031;BME280;71592;52.178;4.512;2023-07-20T12:48:20;101586.97;;;25.77;32.84
82031;BME280;71592;52.178;4.512;2023-07-20T12:50:45;101583.88;;;25.31;34.38
82031;BME280;71592;52.178;4.512;2023-07-20T12:53:11;101586.97;;;25.20;33.42
82031;BME280;71592;52.178;4.512;2023-07-20T12:55:37;101577.41;;;24.90;33.50
82031;BME280;71592;52.178;4.512;2023-07-20T12:58:04;101586.38;;;25.32;34.05
82031;BME280;71592;52.178;4.512;2023-07-20T13:00:30;101574.56;;;25.13;34.01
82031;BME280;71592;52.178;4.512;2023-07-20T13:02:55;101566.69;;;25.23;33.82
82031;BME280;71592;52.178;4.512;2023-07-20T13:05:21;101576.72;;;24.76;34.26